Wetterstation Vordersexau
Wetterdaten: Woche 04.07.16 - 10.07.16 (KW27)
Datum Zeit Temp. A. Feuchte A. Luftdruck Regen Wind Richtung Taupunkt Windchill Windben
04.07.2016 00:00 13,4 C 81 % 1020,3 hPa 0,0 l/m 0,0 km/h N 10,2 C 13,4 C 0,0 km/h
04.07.2016 01:00 13,6 C 82 % 1019,8 hPa 0,0 l/m 0,0 km/h SO 10,6 C 13,6 C 0,0 km/h
04.07.2016 02:00 13,8 C 82 % 1019,6 hPa 0,0 l/m 0,0 km/h O 10,8 C 13,8 C 0,0 km/h
04.07.2016 03:00 12,3 C 83 % 1019,6 hPa 0,0 l/m 0,0 km/h O 9,5 C 12,3 C 0,0 km/h
04.07.2016 04:00 11,9 C 84 % 1019,5 hPa 0,0 l/m 0,0 km/h O 9,3 C 11,9 C 0,0 km/h
04.07.2016 05:00 12,2 C 85 % 1019,8 hPa 0,0 l/m 0,0 km/h O 9,8 C 12,2 C 0,0 km/h
04.07.2016 06:00 13,6 C 85 % 1019,9 hPa 0,0 l/m 0,0 km/h O-SO 11,1 C 13,6 C 0,0 km/h
04.07.2016 07:00 17,2 C 84 % 1019,7 hPa 0,0 l/m 0,0 km/h SO 14,5 C 17,2 C 0,0 km/h
04.07.2016 08:00 26,2 C 53 % 1019,5 hPa 0,0 l/m 0,0 km/h W 15,8 C 26,2 C 0,0 km/h
04.07.2016 09:00 26,8 C 50 % 1019,3 hPa 0,0 l/m 0,0 km/h W-NW 15,5 C 26,8 C 0,0 km/h
04.07.2016 10:00 25,8 C 51 % 1019,0 hPa 0,0 l/m 1,9 km/h SW 14,9 C 25,8 C 1,1 km/h
04.07.2016 11:00 26,1 C 51 % 1018,8 hPa 0,0 l/m 3,9 km/h W 15,2 C 26,1 C 2,2 km/h
04.07.2016 12:00 25,3 C 54 % 1018,3 hPa 0,0 l/m 0,0 km/h W 15,3 C 25,3 C 0,0 km/h
04.07.2016 13:00 27,4 C 50 % 1017,9 hPa 0,0 l/m 0,0 km/h W 16,0 C 27,4 C 0,0 km/h
04.07.2016 14:00 28,6 C 46 % 1017,4 hPa 0,0 l/m 6,5 km/h W 15,8 C 28,6 C 3,6 km/h
04.07.2016 15:00 29,2 C 43 % 1016,9 hPa 0,0 l/m 0,0 km/h NW 15,3 C 29,2 C 0,0 km/h
04.07.2016 16:00 30,3 C 41 % 1016,7 hPa 0,0 l/m 0,0 km/h W 15,6 C 30,3 C 0,0 km/h
04.07.2016 17:00 33,9 C 36 % 1016,2 hPa 0,0 l/m 4,5 km/h N-NO 16,7 C 33,9 C 2,5 km/h
04.07.2016 18:00 32,5 C 36 % 1015,7 hPa 0,0 l/m 0,0 km/h W 15,5 C 32,5 C 0,0 km/h
04.07.2016 19:00 25,1 C 50 % 1015,7 hPa 0,0 l/m 0,0 km/h N-NO 13,9 C 25,1 C 0,0 km/h
04.07.2016 20:00 21,8 C 61 % 1015,5 hPa 0,0 l/m 0,0 km/h NO 13,9 C 21,8 C 0,0 km/h
04.07.2016 21:00 18,0 C 72 % 1015,6 hPa 0,0 l/m 0,0 km/h NO 12,9 C 18,0 C 0,0 km/h
04.07.2016 22:00 16,5 C 75 % 1015,6 hPa 0,0 l/m 0,0 km/h NO 12,1 C 16,5 C 0,0 km/h
04.07.2016 23:00 15,8 C 78 % 1015,7 hPa 0,0 l/m 0,0 km/h O-SO 12,0 C 15,8 C 0,0 km/h
05.07.2016 00:00 15,5 C 80 % 1015,8 hPa 0,0 l/m 0,0 km/h O-SO 12,1 C 15,5 C 0,0 km/h
05.07.2016 01:00 14,6 C 83 % 1015,7 hPa 0,0 l/m 0,0 km/h SO 11,7 C 14,6 C 0,0 km/h
05.07.2016 02:00 14,3 C 83 % 1015,6 hPa 0,0 l/m 0,0 km/h SO 11,5 C 14,3 C 0,0 km/h
05.07.2016 03:00 14,6 C 84 % 1015,5 hPa 0,0 l/m 0,0 km/h SO 11,9 C 14,6 C 0,0 km/h
05.07.2016 04:00 14,5 C 84 % 1014,9 hPa 0,0 l/m 0,0 km/h SO 11,8 C 14,5 C 0,0 km/h
05.07.2016 05:00 14,6 C 84 % 1015,0 hPa 0,0 l/m 0,0 km/h SO 11,9 C 14,6 C 0,0 km/h
05.07.2016 06:00 15,5 C 84 % 1015,6 hPa 0,0 l/m 0,0 km/h SO 12,8 C 15,5 C 0,0 km/h
05.07.2016 07:00 18,1 C 84 % 1015,5 hPa 0,0 l/m 0,0 km/h SO 15,4 C 18,1 C 0,0 km/h
05.07.2016 08:00 21,5 C 75 % 1015,7 hPa 0,0 l/m 0,0 km/h W 16,9 C 21,5 C 0,0 km/h
05.07.2016 09:00 22,1 C 72 % 1015,9 hPa 0,0 l/m 0,0 km/h S-SO 16,8 C 22,1 C 0,0 km/h
05.07.2016 10:00 27,9 C 58 % 1015,9 hPa 0,0 l/m 11,0 km/h W 18,9 C 27,2 C 6,1 km/h
05.07.2016 11:00 27,5 C 52 % 1015,9 hPa 0,0 l/m 0,0 km/h W 16,7 C 27,5 C 0,0 km/h
05.07.2016 12:00 26,4 C 52 % 1015,8 hPa 0,0 l/m 0,0 km/h W-NW 15,7 C 26,4 C 0,0 km/h
05.07.2016 13:00 27,9 C 49 % 1014,9 hPa 0,0 l/m 0,0 km/h N-NO 16,2 C 27,9 C 0,0 km/h
05.07.2016 14:00 29,6 C 45 % 1014,6 hPa 0,0 l/m 13,6 km/h N-NW 16,4 C 29,0 C 7,6 km/h
05.07.2016 15:00 29,6 C 46 % 1014,8 hPa 0,0 l/m 0,0 km/h N 16,7 C 29,6 C 0,0 km/h
05.07.2016 16:00 30,1 C 45 % 1014,4 hPa 0,0 l/m 1,9 km/h N-NO 16,8 C 30,1 C 1,1 km/h
05.07.2016 17:00 29,2 C 42 % 1014,5 hPa 0,0 l/m 13,6 km/h N 14,9 C 28,5 C 7,6 km/h
05.07.2016 18:00 25,2 C 47 % 1014,6 hPa 0,0 l/m 0,0 km/h N 13,1 C 25,2 C 0,0 km/h
Min-Datum _ 04.07.16 04.07.16 05.07.16 - 04.07.16 - 04.07.16 04.07.16 04.07.16
_ Min-Zeit 04:56 17:56 16:56 - 00:56 - 04:56 04:56 00:56
Minimum _ 11,9 C 36 % 1014,4 hPa - 0,0 km/h - 9,3 C 11,9 C 0,0 km/h
Max-Datum _ 04.07.16 04.07.16 04.07.16 04.07.16 05.07.16 - 05.07.16 04.07.16 05.07.16
_ Max-Zeit 17:56 05:56 00:56 00:56 14:56 - 10:56 17:56 14:56
Maximum _ 33,9 C 85 % 1020,3 hPa 0,0 l/m 13,6 km/h
N-NW
- 18,9 C 33,9 C 7,6 km/h
N-NW
Durchschnitt _ 21,8 C 64 % 1016,8 hPa #0,0 l/m 1,3 km/h W 14,0 C 21,7 C 0,7 km/h
www.sexauwetter.de